createdAt,value
2017-10-16T00:00:07.859Z,95.20
2017-10-16T00:02:35.519Z,95.30
2017-10-16T00:05:03.125Z,95.30
2017-10-16T00:07:31.542Z,95.60
2017-10-16T00:09:59.151Z,95.40
2017-10-16T00:12:26.836Z,95.60
2017-10-16T00:14:55.404Z,95.80
2017-10-16T00:17:23.021Z,95.70
2017-10-16T00:19:50.616Z,95.80
2017-10-16T00:22:18.230Z,95.80
2017-10-16T00:24:45.989Z,95.90
2017-10-16T00:27:13.632Z,96.00
2017-10-16T00:29:41.978Z,96.10
2017-10-16T00:32:09.590Z,96.10
2017-10-16T00:34:37.203Z,96.10
2017-10-16T00:37:05.656Z,96.10
2017-10-16T00:39:34.230Z,96.00
2017-10-16T00:42:01.878Z,96.10
2017-10-16T00:44:29.485Z,96.30
2017-10-16T00:46:57.218Z,96.30
2017-10-16T00:49:24.872Z,96.30
2017-10-16T00:51:52.469Z,96.40
2017-10-16T00:54:20.093Z,96.40
2017-10-16T00:56:47.772Z,96.30
2017-10-16T00:59:15.451Z,96.40
2017-10-16T01:01:43.108Z,96.50
2017-10-16T01:04:10.767Z,96.50
2017-10-16T01:06:38.373Z,96.50
2017-10-16T01:09:06.002Z,96.40
2017-10-16T01:11:33.621Z,96.10
2017-10-16T01:14:01.248Z,96.10
2017-10-16T01:16:28.819Z,96.00
2017-10-16T01:18:57.229Z,96.10
2017-10-16T01:21:25.793Z,96.10
2017-10-16T01:23:53.433Z,96.20
2017-10-16T01:28:54.954Z,96.50
2017-10-16T01:31:22.594Z,96.30
2017-10-16T01:33:50.263Z,96.20
2017-10-16T01:36:17.869Z,96.40
2017-10-16T01:38:45.505Z,96.70
2017-10-16T01:41:13.108Z,96.80
2017-10-16T01:43:41.539Z,96.90
2017-10-16T01:46:09.417Z,96.80
2017-10-16T01:48:37.053Z,97.00
2017-10-16T01:51:04.716Z,97.00
2017-10-16T01:53:32.337Z,97.00
2017-10-16T01:56:01.408Z,97.20
2017-10-16T01:58:30.674Z,96.90
2017-10-16T02:00:58.366Z,96.90
2017-10-16T02:03:26.020Z,96.70
2017-10-16T02:05:53.650Z,96.60
2017-10-16T02:08:21.265Z,96.60
2017-10-16T02:10:49.649Z,96.90
2017-10-16T02:13:17.278Z,96.60
2017-10-16T02:15:44.902Z,96.60
2017-10-16T02:18:12.519Z,96.80
2017-10-16T02:20:40.129Z,96.70
2017-10-16T02:23:07.750Z,96.80
2017-10-16T02:25:35.358Z,97.00
2017-10-16T02:28:02.973Z,96.90
2017-10-16T02:30:30.599Z,96.70
2017-10-16T02:32:58.224Z,96.60
2017-10-16T02:35:26.632Z,96.50
2017-10-16T02:37:54.305Z,96.50
2017-10-16T02:40:21.938Z,96.50
2017-10-16T02:42:49.547Z,96.60
2017-10-16T02:45:17.166Z,96.60
2017-10-16T02:47:44.824Z,96.80
2017-10-16T02:50:12.737Z,96.80
2017-10-16T02:52:40.326Z,96.90
2017-10-16T02:55:08.009Z,96.90
2017-10-16T02:57:35.642Z,96.90
2017-10-16T03:00:03.283Z,97.00
2017-10-16T03:02:30.869Z,97.20
2017-10-16T03:04:58.518Z,97.10
2017-10-16T03:07:26.108Z,97.20
2017-10-16T03:09:53.697Z,97.40
2017-10-16T03:12:21.345Z,97.20
2017-10-16T03:14:49.776Z,97.10
2017-10-16T03:17:17.402Z,97.10
2017-10-16T03:19:45.034Z,97.00
2017-10-16T03:22:13.473Z,96.80
2017-10-16T03:24:41.072Z,96.80
2017-10-16T03:27:09.489Z,96.60
2017-10-16T03:29:37.143Z,96.60
2017-10-16T03:32:04.735Z,96.80
2017-10-16T03:34:32.366Z,96.90
2017-10-16T03:37:00.839Z,97.10
2017-10-16T03:39:28.745Z,97.10
2017-10-16T03:41:56.387Z,97.00
2017-10-16T03:44:24.103Z,97.10
2017-10-16T03:46:52.548Z,97.20
2017-10-16T03:49:20.166Z,97.20
2017-10-16T03:51:48.521Z,97.20
2017-10-16T03:54:16.967Z,97.20
2017-10-16T03:56:44.597Z,97.20
2017-10-16T03:59:12.285Z,97.10
2017-10-16T04:01:39.899Z,96.90
2017-10-16T04:04:07.482Z,96.90
2017-10-16T04:06:35.100Z,96.80
2017-10-16T04:09:02.706Z,96.70
2017-10-16T04:11:30.309Z,96.60
2017-10-16T04:13:58.001Z,96.50
2017-10-16T04:16:26.400Z,96.80
2017-10-16T04:18:54.036Z,96.80
2017-10-16T04:21:21.623Z,96.60
2017-10-16T04:23:49.283Z,96.50
2017-10-16T04:26:16.895Z,96.60
2017-10-16T04:28:44.514Z,96.70
2017-10-16T04:31:12.215Z,96.80
2017-10-16T04:33:39.857Z,96.90
2017-10-16T04:36:07.439Z,96.90
2017-10-16T04:38:35.047Z,96.80
2017-10-16T04:41:03.409Z,97.00
2017-10-16T04:43:31.819Z,97.00
2017-10-16T04:45:59.476Z,97.00
2017-10-16T04:48:27.132Z,97.10
2017-10-16T04:50:54.762Z,96.90
2017-10-16T04:53:22.413Z,97.10
2017-10-16T04:55:50.019Z,97.10
2017-10-16T04:58:17.631Z,97.10
2017-10-16T05:00:45.284Z,97.20
2017-10-16T05:03:12.918Z,97.20
2017-10-16T05:05:40.573Z,97.40
2017-10-16T05:08:08.466Z,97.30
2017-10-16T05:10:36.900Z,97.50
2017-10-16T05:13:04.516Z,97.40
2017-10-16T05:15:32.198Z,97.40
2017-10-16T05:17:59.907Z,97.40
2017-10-16T05:20:27.476Z,97.40
2017-10-16T05:22:55.139Z,97.20
2017-10-16T05:25:22.840Z,97.30
2017-10-16T05:27:51.663Z,97.40
2017-10-16T05:30:19.260Z,97.60
2017-10-16T05:32:46.934Z,97.40
2017-10-16T05:35:14.646Z,97.30
2017-10-16T05:37:42.310Z,97.30
2017-10-16T05:40:09.966Z,97.30
2017-10-16T05:42:38.447Z,97.50
2017-10-16T05:45:06.041Z,97.50
2017-10-16T05:47:33.697Z,97.40
2017-10-16T05:50:01.288Z,97.40
2017-10-16T05:52:28.974Z,97.40
2017-10-16T05:54:56.628Z,97.20
2017-10-16T05:57:25.069Z,97.00
2017-10-16T05:59:52.862Z,97.00
2017-10-16T06:02:20.496Z,97.10
2017-10-16T06:04:48.207Z,97.00
2017-10-16T06:07:16.749Z,96.90
2017-10-16T06:09:44.405Z,96.80
2017-10-16T06:12:12.080Z,96.70
2017-10-16T06:14:39.786Z,96.70
2017-10-16T06:17:07.478Z,96.70
2017-10-16T06:19:35.125Z,96.60
2017-10-16T06:22:02.813Z,96.50
2017-10-16T06:24:30.472Z,96.30
2017-10-16T06:26:58.150Z,96.40
2017-10-16T06:29:25.857Z,96.50
2017-10-16T06:31:53.597Z,96.50
2017-10-16T06:34:21.285Z,96.40
2017-10-16T06:36:49.694Z,96.50
2017-10-16T06:39:17.402Z,96.50
2017-10-16T06:41:45.040Z,96.20
2017-10-16T06:44:12.677Z,96.10
2017-10-16T06:46:40.357Z,96.00
2017-10-16T06:49:08.020Z,95.90
2017-10-16T06:51:35.647Z,95.80
2017-10-16T06:54:03.320Z,96.10
2017-10-16T06:56:30.941Z,95.80
2017-10-16T06:58:59.368Z,95.70
2017-10-16T07:01:27.060Z,95.70
2017-10-16T07:03:54.686Z,95.60
2017-10-16T07:06:22.315Z,95.50
2017-10-16T07:08:49.895Z,95.50
2017-10-16T07:11:17.525Z,95.60
2017-10-16T07:13:45.924Z,95.70
2017-10-16T07:16:14.283Z,95.60
2017-10-16T07:18:41.893Z,95.60
2017-10-16T07:21:09.787Z,95.80
2017-10-16T07:23:38.571Z,95.00
2017-10-16T07:26:06.206Z,95.00
2017-10-16T07:28:33.890Z,94.80
2017-10-16T07:31:01.559Z,94.60
2017-10-16T07:33:29.428Z,94.40
2017-10-16T07:35:57.044Z,94.20
2017-10-16T07:38:24.770Z,93.90
2017-10-16T07:40:53.210Z,93.80
2017-10-16T07:43:20.824Z,93.80
2017-10-16T07:45:49.267Z,93.90
2017-10-16T07:48:17.698Z,93.60
2017-10-16T07:50:46.125Z,93.30
2017-10-16T07:53:13.762Z,93.30
2017-10-16T07:55:42.048Z,93.20
2017-10-16T07:58:09.882Z,93.00
2017-10-16T08:00:37.565Z,92.60
2017-10-16T08:03:05.230Z,92.50
2017-10-16T08:05:32.950Z,92.30
2017-10-16T08:08:00.588Z,92.10
2017-10-16T08:10:28.253Z,91.70
2017-10-16T08:12:56.005Z,91.50
2017-10-16T08:15:23.700Z,91.40
2017-10-16T08:17:51.424Z,91.20
2017-10-16T08:20:19.081Z,91.10
2017-10-16T08:22:47.909Z,91.20
2017-10-16T08:25:15.522Z,91.00
2017-10-16T08:27:43.208Z,90.70
2017-10-16T08:30:11.862Z,90.60
2017-10-16T08:32:39.497Z,90.60
2017-10-16T08:35:07.993Z,90.30
2017-10-16T08:37:35.771Z,90.30
2017-10-16T08:40:03.478Z,90.30
2017-10-16T08:42:31.202Z,90.20
2017-10-16T08:44:58.855Z,90.00
2017-10-16T08:47:26.568Z,89.70
2017-10-16T08:49:54.242Z,89.70
2017-10-16T08:52:21.917Z,89.30
2017-10-16T08:54:49.553Z,89.40
2017-10-16T08:57:17.233Z,89.20
2017-10-16T08:59:44.897Z,89.00
2017-10-16T09:02:12.738Z,88.80
2017-10-16T09:04:40.432Z,88.70
2017-10-16T09:07:08.836Z,88.70
2017-10-16T09:09:36.541Z,88.60
2017-10-16T09:12:04.167Z,88.60
2017-10-16T09:14:31.794Z,88.50
2017-10-16T09:16:59.563Z,88.20
2017-10-16T09:19:28.114Z,87.50
2017-10-16T09:21:55.816Z,87.50
2017-10-16T09:24:24.197Z,86.30
2017-10-16T09:26:52.042Z,86.30
2017-10-16T09:29:20.428Z,85.70
2017-10-16T09:31:48.180Z,85.70
2017-10-16T09:34:16.001Z,85.80
2017-10-16T09:36:43.675Z,84.50
2017-10-16T09:39:11.344Z,83.60
2017-10-16T09:41:38.950Z,83.90
2017-10-16T09:44:07.362Z,83.60
2017-10-16T09:46:35.113Z,83.60
2017-10-16T09:49:02.753Z,83.20
2017-10-16T09:51:30.433Z,83.10
2017-10-16T09:53:58.071Z,83.20
2017-10-16T09:56:26.428Z,83.10
2017-10-16T09:58:54.040Z,83.10
2017-10-16T10:01:22.223Z,83.40
2017-10-16T10:03:49.924Z,83.00
2017-10-16T10:06:17.566Z,82.90
2017-10-16T10:08:45.171Z,82.50
2017-10-16T10:11:13.559Z,82.10
2017-10-16T10:13:42.344Z,81.80
2017-10-16T10:16:10.794Z,81.60
2017-10-16T10:18:38.376Z,81.60
2017-10-16T10:21:05.970Z,81.30
2017-10-16T10:23:33.602Z,81.30
2017-10-16T10:26:02.253Z,81.70
2017-10-16T10:28:30.681Z,80.80
2017-10-16T10:30:58.458Z,80.70
2017-10-16T10:33:26.907Z,80.10
2017-10-16T10:35:54.591Z,80.10
2017-10-16T10:38:22.219Z,80.10
2017-10-16T10:40:49.946Z,79.70
2017-10-16T10:43:17.683Z,79.50
2017-10-16T10:45:46.316Z,79.20
2017-10-16T10:48:14.020Z,79.10
2017-10-16T10:50:42.432Z,78.90
2017-10-16T10:53:10.043Z,78.90
2017-10-16T10:55:37.711Z,78.60
2017-10-16T10:58:05.438Z,78.50
2017-10-16T11:00:33.352Z,78.20
2017-10-16T11:03:01.136Z,77.70
2017-10-16T11:05:28.796Z,78.10
2017-10-16T11:07:56.389Z,78.20
2017-10-16T11:10:24.120Z,77.90
2017-10-16T11:12:51.751Z,77.50
2017-10-16T11:15:21.064Z,77.50
2017-10-16T11:17:48.733Z,77.70
2017-10-16T11:20:16.364Z,77.10
2017-10-16T11:22:44.897Z,77.10
2017-10-16T11:25:12.489Z,76.90
2017-10-16T11:27:40.115Z,76.40
2017-10-16T11:30:07.774Z,76.40
2017-10-16T11:32:36.183Z,76.70
2017-10-16T11:35:03.839Z,76.70
2017-10-16T11:37:31.448Z,76.10
2017-10-16T11:39:59.108Z,75.90
2017-10-16T11:42:26.759Z,75.70
2017-10-16T11:44:54.439Z,75.20
2017-10-16T11:47:22.060Z,75.60
2017-10-16T11:49:49.744Z,75.00
2017-10-16T11:52:17.778Z,74.10
2017-10-16T11:54:46.358Z,73.40
2017-10-16T11:57:14.587Z,73.40
2017-10-16T11:59:42.763Z,73.30
2017-10-16T12:02:10.455Z,73.70
2017-10-16T12:04:39.260Z,72.40
2017-10-16T12:07:07.145Z,72.40
2017-10-16T12:09:37.397Z,72.50
2017-10-16T12:12:06.395Z,70.70
2017-10-16T12:14:34.959Z,70.70
2017-10-16T12:17:07.724Z,70.00
2017-10-16T12:19:36.542Z,69.90
2017-10-16T12:22:04.946Z,69.80
2017-10-16T12:24:33.209Z,69.00
2017-10-16T12:27:01.527Z,68.90
2017-10-16T12:29:30.024Z,68.90
2017-10-16T12:31:58.234Z,68.90
2017-10-16T12:34:26.764Z,68.30
2017-10-16T12:36:54.928Z,68.30
2017-10-16T12:39:22.998Z,68.40
2017-10-16T12:41:51.271Z,68.60
2017-10-16T12:44:19.720Z,68.90
2017-10-16T12:46:48.795Z,68.50
2017-10-16T12:49:16.871Z,68.50
2017-10-16T12:51:45.225Z,67.90
2017-10-16T12:54:16.330Z,66.90
2017-10-16T12:56:44.702Z,66.80
2017-10-16T12:59:12.981Z,67.00
2017-10-16T13:01:41.306Z,66.90
2017-10-16T13:04:09.518Z,67.20
2017-10-16T13:06:37.708Z,67.50
2017-10-16T13:09:05.437Z,67.40
2017-10-16T13:11:33.648Z,67.70
2017-10-16T13:14:01.771Z,67.50
2017-10-16T13:16:29.844Z,67.20
2017-10-16T13:18:58.629Z,67.10
2017-10-16T13:21:26.644Z,67.10
2017-10-16T13:23:55.409Z,66.60
2017-10-16T13:26:23.970Z,66.10
2017-10-16T13:28:51.935Z,66.10
2017-10-16T13:31:20.587Z,66.50
2017-10-16T13:33:48.649Z,66.40
2017-10-16T13:36:16.766Z,66.30
2017-10-16T13:38:44.738Z,66.40
2017-10-16T13:41:12.953Z,66.50
2017-10-16T13:43:40.974Z,66.40
2017-10-16T13:46:09.172Z,67.00
2017-10-16T13:48:37.135Z,67.10
2017-10-16T13:51:05.797Z,66.70
2017-10-16T13:53:33.572Z,66.50
2017-10-16T13:56:01.678Z,66.40
2017-10-16T13:58:29.715Z,66.50
2017-10-16T14:00:58.210Z,66.20
2017-10-16T14:03:27.022Z,66.70
2017-10-16T14:05:54.786Z,66.70
2017-10-16T14:08:22.690Z,66.30
2017-10-16T14:10:50.694Z,65.40
2017-10-16T14:13:18.483Z,65.80
2017-10-16T14:15:46.225Z,66.30
2017-10-16T14:18:14.053Z,66.00
2017-10-16T14:20:41.831Z,66.00
2017-10-16T14:23:09.882Z,66.30
2017-10-16T14:25:38.361Z,67.30
2017-10-16T14:28:06.258Z,67.30
2017-10-16T14:30:34.156Z,66.80
2017-10-16T14:33:01.766Z,67.30
2017-10-16T14:35:29.440Z,67.20
2017-10-16T14:37:57.092Z,66.70
2017-10-16T14:40:25.137Z,66.80
2017-10-16T14:42:52.880Z,67.00
2017-10-16T14:45:20.529Z,67.30
2017-10-16T14:47:48.130Z,67.50
2017-10-16T14:50:15.870Z,68.00
2017-10-16T14:52:43.551Z,68.50
2017-10-16T14:55:11.140Z,69.40
2017-10-16T14:57:38.769Z,70.90
2017-10-16T15:00:06.439Z,71.40
2017-10-16T15:02:34.078Z,72.10
2017-10-16T15:05:02.961Z,72.90
2017-10-16T15:07:30.902Z,72.80
2017-10-16T15:09:58.717Z,73.30
2017-10-16T15:12:26.347Z,73.40
2017-10-16T15:14:54.031Z,73.70
2017-10-16T15:17:22.601Z,74.50
2017-10-16T15:19:51.151Z,74.50
2017-10-16T15:22:18.961Z,74.50
2017-10-16T15:24:46.597Z,74.50
2017-10-16T15:27:14.230Z,75.00
2017-10-16T15:29:41.906Z,75.20
2017-10-16T15:32:09.658Z,75.40
2017-10-16T15:34:37.241Z,75.60
2017-10-16T15:37:04.913Z,75.60
2017-10-16T15:39:32.564Z,75.70
2017-10-16T15:42:00.183Z,76.00
2017-10-16T15:44:28.540Z,76.50
2017-10-16T15:46:56.243Z,76.30
2017-10-16T15:49:23.868Z,76.90
2017-10-16T15:51:51.484Z,76.80
2017-10-16T15:54:19.986Z,77.10
2017-10-16T15:56:47.640Z,77.30
2017-10-16T15:59:15.275Z,77.80
2017-10-16T16:01:42.951Z,77.90
2017-10-16T16:04:10.573Z,78.00
2017-10-16T16:06:38.244Z,78.20
2017-10-16T16:09:06.596Z,79.10
2017-10-16T16:11:35.080Z,79.10
2017-10-16T16:14:02.768Z,79.40
2017-10-16T16:16:31.137Z,79.90
2017-10-16T16:18:59.559Z,79.90
2017-10-16T16:21:27.401Z,79.90
2017-10-16T16:23:54.989Z,80.10
2017-10-16T16:26:22.657Z,80.60
2017-10-16T16:28:50.362Z,80.90
2017-10-16T16:31:17.994Z,81.00
2017-10-16T16:33:45.659Z,81.40
2017-10-16T16:36:13.331Z,81.80
2017-10-16T16:38:40.990Z,82.10
2017-10-16T16:41:08.669Z,82.30
2017-10-16T16:43:37.045Z,83.20
2017-10-16T16:46:05.301Z,83.20
2017-10-16T16:48:32.895Z,83.60
2017-10-16T16:51:00.569Z,83.90
2017-10-16T16:53:28.231Z,84.50
2017-10-16T16:55:56.600Z,85.30
2017-10-16T16:58:25.063Z,85.70
2017-10-16T17:00:52.651Z,85.70
2017-10-16T17:03:20.320Z,86.10
2017-10-16T17:05:47.937Z,86.60
2017-10-16T17:08:15.629Z,86.90
2017-10-16T17:10:43.982Z,87.50
2017-10-16T17:13:11.715Z,87.40
2017-10-16T17:15:39.338Z,88.10
2017-10-16T17:18:06.971Z,88.40
2017-10-16T17:20:34.737Z,88.40
2017-10-16T17:23:03.024Z,88.80
2017-10-16T17:25:31.407Z,89.50
2017-10-16T17:27:59.764Z,89.70
2017-10-16T17:30:27.388Z,89.60
2017-10-16T17:32:54.981Z,90.00
2017-10-16T17:35:22.591Z,90.10
2017-10-16T17:37:50.187Z,90.40
2017-10-16T17:40:17.895Z,90.60
2017-10-16T17:42:45.509Z,90.90
2017-10-16T17:45:13.116Z,91.10
2017-10-16T17:47:41.492Z,91.30
2017-10-16T17:50:09.838Z,91.50
2017-10-16T17:52:37.442Z,91.50
2017-10-16T17:55:05.787Z,91.70
2017-10-16T17:57:33.447Z,91.60
2017-10-16T18:00:01.015Z,91.70
2017-10-16T18:02:28.638Z,91.80
2017-10-16T18:04:56.256Z,91.80
2017-10-16T18:07:24.652Z,92.00
2017-10-16T18:09:52.344Z,91.90
2017-10-16T18:12:19.960Z,91.90
2017-10-16T18:14:48.324Z,91.90
2017-10-16T18:17:15.935Z,91.90
2017-10-16T18:19:43.553Z,92.10
2017-10-16T18:22:11.967Z,91.80
2017-10-16T18:24:39.595Z,91.80
2017-10-16T18:27:08.063Z,92.00
2017-10-16T18:29:35.723Z,92.30
2017-10-16T18:32:04.149Z,92.10
2017-10-16T18:34:31.858Z,92.10
2017-10-16T18:36:59.451Z,92.20
2017-10-16T18:39:27.834Z,92.20
2017-10-16T18:41:55.461Z,92.20
2017-10-16T18:44:23.067Z,92.10
2017-10-16T18:46:50.685Z,92.10
2017-10-16T18:49:18.257Z,92.00
2017-10-16T18:51:46.649Z,92.20
2017-10-16T18:54:14.279Z,92.20
2017-10-16T18:56:41.971Z,92.20
2017-10-16T18:59:10.312Z,92.10
2017-10-16T19:01:37.913Z,92.10
2017-10-16T19:04:05.533Z,92.10
2017-10-16T19:06:35.954Z,92.10
2017-10-16T19:09:03.642Z,92.10
2017-10-16T19:11:31.264Z,92.20
2017-10-16T19:13:58.888Z,92.60
2017-10-16T19:16:26.478Z,92.30
2017-10-16T19:18:54.132Z,92.10
2017-10-16T19:21:21.751Z,91.90
2017-10-16T19:23:50.178Z,91.80
2017-10-16T19:26:17.910Z,91.70
2017-10-16T19:28:45.513Z,91.70
2017-10-16T19:31:13.164Z,92.00
2017-10-16T19:33:40.822Z,91.50
2017-10-16T19:36:08.452Z,91.50
2017-10-16T19:38:37.799Z,91.30
2017-10-16T19:41:05.536Z,91.30
2017-10-16T19:43:33.189Z,91.30
2017-10-16T19:46:00.880Z,91.30
2017-10-16T19:48:28.554Z,91.40
2017-10-16T19:50:56.201Z,91.50
2017-10-16T19:53:23.820Z,91.60
2017-10-16T19:55:52.345Z,91.70
2017-10-16T19:58:19.962Z,91.70
2017-10-16T20:00:48.308Z,91.80
2017-10-16T20:03:15.942Z,91.80
2017-10-16T20:05:43.589Z,91.80
2017-10-16T20:08:11.201Z,92.10
2017-10-16T20:10:38.886Z,92.10
2017-10-16T20:13:07.290Z,92.20
2017-10-16T20:15:35.903Z,92.20
2017-10-16T20:18:03.483Z,92.20
2017-10-16T20:20:31.098Z,92.30
2017-10-16T20:22:58.713Z,92.30
2017-10-16T20:25:26.397Z,92.30
2017-10-16T20:27:54.780Z,92.50
2017-10-16T20:30:23.170Z,92.50
2017-10-16T20:32:50.797Z,92.40
2017-10-16T20:35:18.439Z,92.60
2017-10-16T20:37:46.035Z,92.60
2017-10-16T20:40:14.402Z,92.60
2017-10-16T20:42:42.006Z,92.90
2017-10-16T20:45:09.608Z,92.60
2017-10-16T20:47:37.201Z,92.70
2017-10-16T20:50:05.580Z,92.70
2017-10-16T20:52:33.961Z,92.90
2017-10-16T20:55:02.338Z,92.90
2017-10-16T20:57:30.707Z,92.90
2017-10-16T20:59:59.101Z,93.00
2017-10-16T21:02:26.736Z,92.90
2017-10-16T21:04:54.651Z,93.30
2017-10-16T21:07:22.238Z,93.40
2017-10-16T21:09:49.890Z,93.60
2017-10-16T21:12:17.514Z,93.50
2017-10-16T21:14:45.933Z,93.60
2017-10-16T21:17:13.555Z,93.60
2017-10-16T21:19:41.218Z,93.70
2017-10-16T21:22:09.558Z,93.70
2017-10-16T21:24:37.264Z,93.70
2017-10-16T21:27:04.925Z,93.60
2017-10-16T21:29:32.546Z,93.70
2017-10-16T21:32:00.208Z,93.80
2017-10-16T21:34:27.802Z,94.00
2017-10-16T21:36:56.233Z,94.20
2017-10-16T21:39:23.822Z,94.20
2017-10-16T21:41:51.426Z,94.20
2017-10-16T21:44:19.006Z,94.20
2017-10-16T21:46:46.703Z,94.60
2017-10-16T21:49:14.334Z,94.20
2017-10-16T21:51:41.988Z,94.30
2017-10-16T21:54:09.611Z,94.20
2017-10-16T21:56:38.082Z,94.20
2017-10-16T21:59:06.500Z,94.10
2017-10-16T22:01:34.082Z,94.10
2017-10-16T22:04:01.720Z,94.00
2017-10-16T22:06:29.354Z,94.00
2017-10-16T22:08:57.802Z,94.20
2017-10-16T22:11:25.407Z,94.10
2017-10-16T22:13:52.994Z,94.20
2017-10-16T22:16:20.600Z,94.30
2017-10-16T22:18:48.211Z,94.30
2017-10-16T22:21:15.872Z,94.40
2017-10-16T22:23:43.474Z,94.50
2017-10-16T22:26:11.138Z,94.50
2017-10-16T22:28:38.760Z,94.90
2017-10-16T22:31:06.382Z,94.50
2017-10-16T22:33:34.046Z,94.50
2017-10-16T22:36:01.692Z,94.60
2017-10-16T22:38:30.088Z,94.70
2017-10-16T22:40:57.680Z,95.10
2017-10-16T22:43:25.351Z,94.80
2017-10-16T22:45:52.920Z,94.90
2017-10-16T22:48:20.572Z,95.00
2017-10-16T22:50:51.609Z,95.10
2017-10-16T22:53:19.196Z,95.20
2017-10-16T22:55:46.804Z,95.10
2017-10-16T22:58:14.414Z,95.00
2017-10-16T23:00:42.035Z,94.90
2017-10-16T23:03:09.658Z,94.90
2017-10-16T23:05:38.060Z,95.00
2017-10-16T23:08:05.693Z,94.60
2017-10-16T23:10:33.310Z,94.40
2017-10-16T23:13:00.911Z,94.60
2017-10-16T23:15:29.481Z,93.60
2017-10-16T23:17:57.081Z,93.80
2017-10-16T23:20:24.697Z,93.70
2017-10-16T23:22:52.365Z,93.70
2017-10-16T23:25:20.003Z,93.80
2017-10-16T23:27:47.679Z,93.60
2017-10-16T23:30:15.291Z,93.70
2017-10-16T23:32:42.919Z,93.70
2017-10-16T23:35:10.538Z,93.40
2017-10-16T23:37:38.208Z,93.70
2017-10-16T23:40:05.823Z,93.60
2017-10-16T23:42:34.226Z,93.40
2017-10-16T23:45:02.759Z,93.40
2017-10-16T23:47:30.382Z,93.20
2017-10-16T23:49:58.004Z,93.00
2017-10-16T23:52:26.413Z,93.30
2017-10-16T23:54:54.049Z,93.30
2017-10-16T23:57:22.402Z,93.30
2017-10-16T23:59:50.084Z,93.30
